KIPL/IPL METAR and TAF weather

Enter ICAO airport designator
Station Type Date Time Source
KIPL METAR 2019/04/22 23:53 UTC NOAA

KIPL 222353Z AUTO 32009KT 10SM CLR 31/01 A2979 RMK AO2 SLP086 T03110006 10322 20278 56015


Station Type Date Time Source
KIPL Decoded METAR 2019/04/22 23:53 UTC NOAA

Imperial, Imperial County Airport, CA, United States (KIPL) 32-50-03N 115-34-43W -15M
Apr 22, 2019 - 07:53 PM EDT / 2019.04.22 2353 UTC
Wind: from the NW (320 degrees) at 10 MPH (9 KT):0
Visibility: 10 mile(s):0
Sky conditions: clear
Temperature: 88.0 F (31.1 C)
Dew Point: 33.1 F (0.6 C)
Relative Humidity: 14%
Pressure (altimeter): 29.79 in. Hg (1008 hPa)
Pressure tendency: 0.04 inches (1.5 hPa) lower than three hours ago
ob: KIPL 222353Z AUTO 32009KT 10SM CLR 31/01 A2979 RMK AO2 SLP086 T03110006 10322 20278 56015
cycle: 0

Station Type Date Time Source
KIPL TAF 2019/04/22 18:40 UTC NOAA

TAF KIPL 221738Z 2218/2318 34013KT P6SM FEW110 FEW250
TEMPO 2222/2302 BKN120
FM230200 26012KT P6SM SCT120 SCT250

Example: see airport list